Time;durP1;ratioP1;P1;durP2;ratioP2;P2;SDS_P1;SDS_P2;PMS_P1;PMS_P2;Temp;Humidity;BMP_temperature;BMP_pressure;BME280_temperature;BME280_humidity;BME280_pressure;Samples;Min_cycle;Max_cycle;Signal;HPM_P1;HPM_P2
2021/01/07 00:01:11;;;;;;;7.68;6.15;;;2.60;99.90;;;;;;5018642;28;20029;-72
2021/01/07 00:03:39;;;;;;;5.20;4.80;;;2.50;99.90;;;;;;5018435;28;20449;-73
2021/01/07 00:06:12;;;;;;;5.55;5.05;;;2.50;99.90;;;;;;5019340;28;20029;-73
2021/01/07 00:08:38;;;;;;;6.20;5.30;;;2.50;99.90;;;;;;5014756;28;20022;-72
2021/01/07 00:11:06;;;;;;;6.55;5.95;;;2.50;99.90;;;;;;5017705;28;20029;-72
2021/01/07 00:13:32;;;;;;;6.28;5.68;;;2.50;99.90;;;;;;5001281;28;20049;-73
2021/01/07 00:15:58;;;;;;;5.30;4.80;;;2.50;99.90;;;;;;5016505;28;20440;-73
2021/01/07 00:18:24;;;;;;;6.35;5.75;;;2.50;99.90;;;;;;5017228;28;20064;-73
2021/01/07 00:20:50;;;;;;;6.28;5.68;;;2.50;99.90;;;;;;5017565;28;20026;-73
2021/01/07 00:23:15;;;;;;;6.13;5.57;;;2.50;99.90;;;;;;5010316;28;20073;-74
2021/01/07 00:25:48;;;;;;;5.45;4.93;;;2.50;99.90;;;;;;5007094;28;20027;-74
2021/01/07 00:28:14;;;;;;;6.05;5.55;;;2.50;99.90;;;;;;5017174;28;20061;-73
2021/01/07 00:30:41;;;;;;;6.05;5.53;;;2.50;99.90;;;;;;5017163;28;20030;-74
2021/01/07 00:33:06;;;;;;;6.03;5.45;;;2.50;99.90;;;;;;5011651;28;20481;-74
2021/01/07 00:35:32;;;;;;;5.97;5.38;;;2.50;99.90;;;;;;4987759;28;20114;-74
2021/01/07 00:37:58;;;;;;;6.20;5.60;;;2.40;99.90;;;;;;5015986;28;20037;-73
2021/01/07 00:40:23;;;;;;;5.95;5.43;;;2.40;99.90;;;;;;5016080;28;20034;-72
2021/01/07 00:42:49;;;;;;;7.35;6.65;;;2.40;99.90;;;;;;5016650;28;20064;-73
2021/01/07 00:45:14;;;;;;;7.28;6.57;;;2.50;99.90;;;;;;4998874;28;20069;-74
2021/01/07 00:47:40;;;;;;;7.68;6.90;;;2.50;99.90;;;;;;5017177;28;20026;-71
2021/01/07 00:50:06;;;;;;;7.03;6.32;;;2.50;99.90;;;;;;5016717;28;20034;-73
2021/01/07 00:52:31;;;;;;;8.02;7.22;;;2.50;99.90;;;;;;5006056;28;20555;-73
2021/01/07 00:54:57;;;;;;;7.78;6.97;;;2.50;99.90;;;;;;5008748;28;20482;-73
2021/01/07 00:57:23;;;;;;;8.68;7.22;;;2.50;99.90;;;;;;5016180;28;20034;-73
2021/01/07 00:59:48;;;;;;;8.05;7.25;;;2.40;99.90;;;;;;4988150;28;20068;-73
2021/01/07 01:02:14;;;;;;;8.07;7.25;;;2.50;99.90;;;;;;4994278;28;20076;-73
2021/01/07 01:04:39;;;;;;;8.25;7.45;;;2.50;99.90;;;;;;5015721;28;20176;-74
2021/01/07 01:07:06;;;;;;;9.07;8.18;;;2.50;99.90;;;;;;5001565;28;20193;-73
2021/01/07 01:09:31;;;;;;;9.63;8.40;;;2.50;99.90;;;;;;4997332;28;20018;-73
2021/01/07 01:11:57;;;;;;;8.73;7.90;;;2.50;99.90;;;;;;5016153;28;20026;-73
2021/01/07 01:14:22;;;;;;;9.98;8.30;;;2.50;99.90;;;;;;4997624;28;20084;-73
2021/01/07 01:16:50;;;;;;;9.20;8.20;;;2.40;99.90;;;;;;5014629;28;20038;-73
2021/01/07 01:19:19;;;;;;;9.40;8.48;;;2.50;99.90;;;;;;4994982;28;20031;-74
2021/01/07 01:21:45;;;;;;;8.20;7.40;;;2.50;99.90;;;;;;5008194;28;20038;-73
2021/01/07 01:24:11;;;;;;;10.35;8.68;;;2.50;99.90;;;;;;5014539;28;20060;-73
2021/01/07 01:26:37;;;;;;;8.88;6.88;;;2.50;99.90;;;;;;5015594;28;20034;-73
2021/01/07 01:29:03;;;;;;;8.75;7.93;;;2.50;99.90;;;;;;4997575;28;20022;-73
2021/01/07 01:31:29;;;;;;;10.13;8.35;;;2.50;99.90;;;;;;5016268;28;20052;-73
2021/01/07 01:33:54;;;;;;;9.25;8.20;;;2.50;99.90;;;;;;4994601;28;20026;-74
2021/01/07 01:36:27;;;;;;;8.63;7.82;;;2.50;99.90;;;;;;5012159;28;20493;-72
2021/01/07 01:38:53;;;;;;;8.85;7.60;;;2.50;99.90;;;;;;5010681;28;20019;-73
2021/01/07 01:41:19;;;;;;;9.10;8.20;;;2.50;99.90;;;;;;5003526;28;20116;-73
2021/01/07 01:43:44;;;;;;;8.35;7.55;;;2.50;99.90;;;;;;4988611;28;20069;-73
2021/01/07 01:46:10;;;;;;;9.57;7.50;;;2.50;99.90;;;;;;5007586;28;20040;-73
2021/01/07 01:48:36;;;;;;;8.63;7.75;;;2.50;99.90;;;;;;5007118;28;20096;-74
2021/01/07 01:51:02;;;;;;;8.57;7.68;;;2.40;99.90;;;;;;5016245;28;20024;-74
2021/01/07 01:53:27;;;;;;;8.95;8.05;;;2.40;99.90;;;;;;5015679;28;20057;-73
2021/01/07 01:55:54;;;;;;;8.43;7.63;;;2.40;99.90;;;;;;5006150;28;20137;-72
2021/01/07 01:58:20;;;;;;;9.07;8.18;;;2.50;99.90;;;;;;5007446;28;20133;-73
2021/01/07 02:00:46;;;;;;;8.13;7.32;;;2.50;99.90;;;;;;5018133;28;20045;-74
2021/01/07 02:03:12;;;;;;;7.70;7.00;;;2.40;99.90;;;;;;5034988;28;20021;-73
2021/01/07 02:05:41;;;;;;;8.18;7.30;;;2.40;99.90;;;;;;5036940;28;20064;-73
2021/01/07 02:08:09;;;;;;;7.85;7.05;;;2.40;99.90;;;;;;5035337;28;20018;-71
2021/01/07 02:10:35;;;;;;;8.35;7.55;;;2.40;99.90;;;;;;5033642;28;20160;-76
2021/01/07 02:13:03;;;;;;;7.97;7.18;;;2.40;99.90;;;;;;5014356;28;20513;-76
2021/01/07 02:15:29;;;;;;;8.82;7.28;;;2.40;99.90;;;;;;5010122;28;20429;-77
2021/01/07 02:17:58;;;;;;;7.90;7.05;;;2.40;99.90;;;;;;5011292;28;20385;-75
2021/01/07 02:20:25;;;;;;;7.90;7.10;;;2.50;99.90;;;;;;5019444;28;20064;-76
2021/01/07 02:22:55;;;;;;;7.70;6.85;;;2.40;99.90;;;;;;5018373;28;20041;-76
2021/01/07 02:25:22;;;;;;;8.27;7.43;;;2.50;99.90;;;;;;5018383;28;20046;-77
2021/01/07 02:27:48;;;;;;;7.85;7.15;;;2.50;99.90;;;;;;5000437;28;20036;-77
2021/01/07 02:30:15;;;;;;;7.70;6.82;;;2.50;99.90;;;;;;5016396;28;20393;-76
2021/01/07 02:32:40;;;;;;;8.00;7.22;;;2.50;99.90;;;;;;5015880;28;20037;-78
2021/01/07 02:35:08;;;;;;;8.25;7.40;;;2.50;99.90;;;;;;5017853;28;20022;-76
2021/01/07 02:37:35;;;;;;;8.30;7.40;;;2.50;99.90;;;;;;4999246;28;20037;-77
2021/01/07 02:40:01;;;;;;;8.23;7.43;;;2.50;99.90;;;;;;5000407;28;20029;-75
2021/01/07 02:42:27;;;;;;;7.80;7.03;;;2.50;99.90;;;;;;5016991;28;20044;-76
2021/01/07 02:44:53;;;;;;;9.15;8.05;;;2.50;99.90;;;;;;5013141;28;20105;-76
2021/01/07 02:47:18;;;;;;;9.77;7.82;;;2.50;99.90;;;;;;5001935;28;20041;-76
2021/01/07 02:49:44;;;;;;;8.05;7.22;;;2.50;99.90;;;;;;4997895;28;20110;-76
2021/01/07 02:52:10;;;;;;;8.77;7.88;;;2.50;99.90;;;;;;5016637;28;20083;-75
2021/01/07 02:54:36;;;;;;;9.45;8.13;;;2.50;99.90;;;;;;5016052;28;20056;-76
2021/01/07 02:57:02;;;;;;;9.10;7.43;;;2.50;99.90;;;;;;5015871;28;20085;-75
2021/01/07 02:59:28;;;;;;;8.02;7.22;;;2.50;99.90;;;;;;4998078;28;20057;-76
2021/01/07 03:01:54;;;;;;;7.28;6.57;;;2.50;99.90;;;;;;5016885;28;20442;-77
2021/01/07 03:04:20;;;;;;;7.25;6.53;;;2.50;99.90;;;;;;5017048;28;20101;-76
2021/01/07 03:06:46;;;;;;;7.18;6.50;;;2.60;99.90;;;;;;5012256;28;20073;-76
2021/01/07 03:09:12;;;;;;;6.70;5.97;;;2.50;99.90;;;;;;4992854;28;20029;-76
2021/01/07 03:11:38;;;;;;;7.00;5.60;;;2.50;99.90;;;;;;4998880;28;20440;-76
2021/01/07 03:14:03;;;;;;;8.20;6.22;;;2.50;99.90;;;;;;5015785;28;20033;-75
2021/01/07 03:16:29;;;;;;;6.78;6.00;;;2.40;99.90;;;;;;4996906;28;20532;-76
2021/01/07 03:18:55;;;;;;;6.70;6.00;;;2.50;99.90;;;;;;4998123;28;20173;-76
2021/01/07 03:21:20;;;;;;;6.25;5.65;;;2.50;99.90;;;;;;4998180;28;20502;-76
2021/01/07 03:23:46;;;;;;;5.70;4.82;;;2.50;99.90;;;;;;5016838;28;20048;-76
2021/01/07 03:26:11;;;;;;;6.07;5.47;;;2.50;99.90;;;;;;5016499;28;20026;-76
2021/01/07 03:28:37;;;;;;;5.20;4.70;;;2.50;99.90;;;;;;5004978;28;20113;-76
2021/01/07 03:31:03;;;;;;;6.82;6.22;;;2.50;99.90;;;;;;5012157;28;20072;-76
2021/01/07 03:33:29;;;;;;;5.50;4.97;;;2.60;99.90;;;;;;5000340;28;20471;-75
2021/01/07 03:35:56;;;;;;;6.20;5.60;;;2.50;99.90;;;;;;5006046;28;20080;-76
2021/01/07 03:38:21;;;;;;;5.75;5.18;;;2.50;99.90;;;;;;5021815;28;20057;-75
2021/01/07 03:40:47;;;;;;;5.30;4.80;;;2.40;99.90;;;;;;5013545;28;20026;-72
2021/01/07 03:43:12;;;;;;;5.50;5.00;;;2.40;99.90;;;;;;5018209;28;20026;-72
2021/01/07 03:45:38;;;;;;;5.38;4.75;;;2.40;99.90;;;;;;5017095;28;20025;-72
2021/01/07 03:48:05;;;;;;;5.43;4.78;;;2.40;99.90;;;;;;5017157;28;20041;-76
2021/01/07 03:50:30;;;;;;;5.03;4.55;;;2.40;99.90;;;;;;5002349;28;20485;-74
2021/01/07 03:52:56;;;;;;;5.43;4.93;;;2.40;99.90;;;;;;5018979;28;20222;-74
2021/01/07 03:55:21;;;;;;;5.22;4.28;;;2.40;99.90;;;;;;5020140;28;20049;-74
2021/01/07 03:57:47;;;;;;;5.28;4.88;;;2.40;99.90;;;;;;5022398;28;20088;-75
2021/01/07 04:00:13;;;;;;;5.05;4.65;;;2.40;99.90;;;;;;5002169;28;20061;-75
2021/01/07 04:02:38;;;;;;;4.63;4.22;;;2.40;99.90;;;;;;5019244;28;20038;-75
2021/01/07 04:05:05;;;;;;;5.00;4.45;;;2.40;99.90;;;;;;5021359;28;20036;-74
2021/01/07 04:07:30;;;;;;;5.32;4.47;;;2.40;99.90;;;;;;5003795;28;20060;-75
2021/01/07 04:09:56;;;;;;;4.70;3.92;;;2.40;99.90;;;;;;5001125;28;20023;-75
2021/01/07 04:12:21;;;;;;;4.45;4.05;;;2.40;99.90;;;;;;5013456;28;20021;-75
2021/01/07 04:14:47;;;;;;;4.47;4.07;;;2.40;99.90;;;;;;5024016;28;20018;-75
2021/01/07 04:17:12;;;;;;;4.47;3.90;;;2.40;99.90;;;;;;5024258;28;20045;-74
2021/01/07 04:19:38;;;;;;;4.72;4.20;;;2.40;99.90;;;;;;5023258;28;20048;-75
2021/01/07 04:22:03;;;;;;;3.92;3.40;;;2.40;99.90;;;;;;5024108;28;20049;-75
2021/01/07 04:24:29;;;;;;;4.93;3.30;;;2.40;99.90;;;;;;5023206;28;20034;-74
2021/01/07 04:26:55;;;;;;;3.42;3.10;;;2.40;99.90;;;;;;5007310;28;20061;-75
2021/01/07 04:29:20;;;;;;;4.20;3.80;;;2.40;99.90;;;;;;5023851;28;20026;-75
2021/01/07 04:31:46;;;;;;;3.40;3.10;;;2.40;99.90;;;;;;5021184;28;20034;-75
2021/01/07 04:34:12;;;;;;;2.92;2.72;;;2.40;99.90;;;;;;5004677;28;20053;-75
2021/01/07 04:36:37;;;;;;;3.55;3.25;;;2.40;99.90;;;;;;5020196;28;20044;-75
2021/01/07 04:39:03;;;;;;;4.53;3.47;;;2.30;99.90;;;;;;5017273;28;20017;-75
2021/01/07 04:41:30;;;;;;;4.00;3.40;;;2.40;99.90;;;;;;5017465;28;20385;-76
2021/01/07 04:43:57;;;;;;;3.85;3.53;;;2.40;99.90;;;;;;5016895;28;20458;-75
2021/01/07 04:46:24;;;;;;;3.85;3.42;;;2.30;99.90;;;;;;5018561;28;20037;-76
2021/01/07 04:48:50;;;;;;;4.28;3.88;;;2.40;99.90;;;;;;5020342;28;20018;-77
2021/01/07 04:51:16;;;;;;;5.38;3.22;;;2.40;99.90;;;;;;5001713;28;20056;-76
2021/01/07 04:53:42;;;;;;;4.60;4.13;;;2.40;99.90;;;;;;5018272;28;20430;-77
2021/01/07 04:56:07;;;;;;;4.97;4.47;;;2.30;99.90;;;;;;5018549;28;20026;-77
2021/01/07 04:58:33;;;;;;;6.00;4.55;;;2.30;99.90;;;;;;5018107;28;20024;-75
2021/01/07 05:00:58;;;;;;;5.03;3.75;;;2.40;99.90;;;;;;5017951;28;20481;-76
2021/01/07 05:03:28;;;;;;;6.35;4.68;;;2.40;99.90;;;;;;5017358;28;20104;-77
2021/01/07 05:05:54;;;;;;;4.53;4.13;;;2.40;99.90;;;;;;5017425;28;20072;-76
2021/01/07 05:08:20;;;;;;;5.10;4.25;;;2.40;99.90;;;;;;5017149;28;20034;-76
2021/01/07 05:10:50;;;;;;;5.72;5.20;;;2.30;99.90;;;;;;5018996;28;20057;-77
2021/01/07 05:13:20;;;;;;;5.25;4.15;;;2.20;99.90;;;;;;5017091;28;20026;-77
2021/01/07 05:15:46;;;;;;;4.95;3.75;;;2.20;99.90;;;;;;5017433;28;20022;-76
2021/01/07 05:18:12;;;;;;;3.88;3.53;;;2.10;99.90;;;;;;5017708;28;20091;-77
2021/01/07 05:20:39;;;;;;;4.70;4.18;;;2.10;99.90;;;;;;4998815;28;20030;-77
2021/01/07 05:23:06;;;;;;;4.32;3.92;;;2.00;99.90;;;;;;5016443;28;20018;-76
2021/01/07 05:25:31;;;;;;;5.15;3.75;;;2.00;99.90;;;;;;5001149;28;20034;-77
2021/01/07 05:28:01;;;;;;;4.00;3.42;;;2.10;99.90;;;;;;5016169;28;20026;-78
2021/01/07 05:30:29;;;;;;;4.20;3.80;;;2.10;99.90;;;;;;5016997;28;20024;-75
2021/01/07 05:33:06;;;;;;;4.47;3.75;;;2.10;99.90;;;;;;5016561;28;20029;-76
2021/01/07 05:35:32;;;;;;;4.47;4.07;;;2.10;99.90;;;;;;5015925;28;20018;-76
2021/01/07 05:37:59;;;;;;;4.28;3.88;;;2.10;99.90;;;;;;5015967;28;20029;-77
2021/01/07 05:40:25;;;;;;;4.50;3.83;;;2.10;99.90;;;;;;4998720;28;20034;-78
2021/01/07 05:42:55;;;;;;;4.40;4.00;;;2.10;99.90;;;;;;5016562;28;20032;-77
2021/01/07 05:45:21;;;;;;;4.78;4.28;;;2.10;99.90;;;;;;5005360;28;20504;-77
2021/01/07 05:47:49;;;;;;;6.00;4.28;;;2.10;99.90;;;;;;4998310;28;20030;-79
2021/01/07 05:50:18;;;;;;;4.65;4.13;;;2.20;99.90;;;;;;5017033;28;20041;-78
2021/01/07 05:52:45;;;;;;;5.13;4.28;;;2.10;99.90;;;;;;4997967;28;20032;-77
2021/01/07 05:55:12;;;;;;;4.75;4.32;;;2.20;99.90;;;;;;5016873;28;20441;-77
2021/01/07 05:57:39;;;;;;;4.53;4.13;;;2.10;99.90;;;;;;4998736;28;20030;-76
2021/01/07 06:00:07;;;;;;;5.40;4.72;;;2.20;99.90;;;;;;5015798;28;20034;-77
2021/01/07 06:02:39;;;;;;;5.57;4.97;;;2.20;99.90;;;;;;5018115;28;20389;-77
2021/01/07 06:05:15;;;;;;;4.57;4.18;;;2.20;99.90;;;;;;5016500;28;20050;-77
2021/01/07 06:07:41;;;;;;;5.20;4.70;;;2.20;99.90;;;;;;5015835;28;20480;-77
2021/01/07 06:10:09;;;;;;;5.53;5.03;;;2.20;99.90;;;;;;5016909;28;20109;-77
2021/01/07 06:12:35;;;;;;;5.72;4.88;;;2.20;99.90;;;;;;5016935;28;20025;-77
2021/01/07 06:15:05;;;;;;;5.95;5.30;;;2.20;99.90;;;;;;4998602;28;20029;-77
2021/01/07 06:17:31;;;;;;;6.03;5.40;;;2.20;99.90;;;;;;5016361;28;20026;-77
2021/01/07 06:19:57;;;;;;;10.50;6.53;;;2.20;99.90;;;;;;4999188;28;20112;-75
2021/01/07 06:22:24;;;;;;;12.60;7.03;;;2.20;99.90;;;;;;5018897;28;20068;-77
2021/01/07 06:24:54;;;;;;;6.50;5.90;;;2.20;99.90;;;;;;5024972;28;20030;-75
2021/01/07 06:27:31;;;;;;;7.55;6.60;;;2.30;99.90;;;;;;5017484;28;20030;-77
2021/01/07 06:30:03;;;;;;;9.57;6.20;;;2.30;99.90;;;;;;4999851;28;20045;-77
2021/01/07 06:32:29;;;;;;;7.20;6.43;;;2.30;99.90;;;;;;5016298;28;20026;-77
2021/01/07 06:34:57;;;;;;;6.90;5.45;;;2.30;99.90;;;;;;5016168;28;20100;-77
2021/01/07 06:37:31;;;;;;;7.53;5.45;;;2.30;99.90;;;;;;4998121;28;20084;-76
2021/01/07 06:39:58;;;;;;;7.28;6.57;;;2.30;99.90;;;;;;4998370;28;20459;-76
2021/01/07 06:42:24;;;;;;;7.80;6.50;;;2.40;99.90;;;;;;5015176;28;20026;-76
2021/01/07 06:44:52;;;;;;;8.65;7.45;;;2.40;99.90;;;;;;4994498;28;20030;-77
2021/01/07 06:47:20;;;;;;;8.45;7.13;;;2.40;99.90;;;;;;5014483;28;20030;-77
2021/01/07 06:49:47;;;;;;;9.52;7.28;;;2.40;99.90;;;;;;4997734;28;20026;-76
2021/01/07 06:52:13;;;;;;;10.07;8.30;;;2.40;99.90;;;;;;5016655;28;20026;-77
2021/01/07 06:54:44;;;;;;;12.15;10.57;;;2.40;99.90;;;;;;5016322;28;20036;-76
2021/01/07 06:57:12;;;;;;;12.07;10.77;;;2.40;99.90;;;;;;4997709;28;20041;-77
2021/01/07 07:00:05;;;;;;;10.57;9.50;;;2.40;99.90;;;;;;5014975;28;20045;-76
2021/01/07 07:02:31;;;;;;;12.30;8.70;;;2.40;99.90;;;;;;5010937;28;20096;-76
2021/01/07 07:05:05;;;;;;;10.32;8.32;;;2.60;99.90;;;;;;4999020;28;20030;-76
2021/01/07 07:07:30;;;;;;;8.65;7.25;;;2.50;99.90;;;;;;5017245;28;20034;-75
2021/01/07 07:10:19;;;;;;;9.07;8.18;;;2.50;99.90;;;;;;5016973;28;20084;-76
2021/01/07 07:12:52;;;;;;;10.30;8.25;;;2.50;99.90;;;;;;5009840;28;20097;-77
2021/01/07 07:15:22;;;;;;;9.70;8.70;;;2.50;99.90;;;;;;5000146;28;20030;-76
2021/01/07 07:17:50;;;;;;;11.43;8.00;;;2.50;99.90;;;;;;5015304;28;20072;-76
2021/01/07 07:20:26;;;;;;;11.18;8.20;;;2.50;99.90;;;;;;5015810;28;20141;-75
2021/01/07 07:22:52;;;;;;;10.20;9.10;;;2.50;99.90;;;;;;4999182;28;20022;-77
2021/01/07 07:25:23;;;;;;;9.07;7.78;;;2.50;99.90;;;;;;5016543;28;20030;-76
2021/01/07 07:27:52;;;;;;;9.57;8.55;;;2.50;99.90;;;;;;5016811;28;20026;-77
2021/01/07 07:30:23;;;;;;;9.70;8.70;;;2.50;99.90;;;;;;5017685;28;20266;-76
2021/01/07 07:32:49;;;;;;;13.35;9.13;;;2.50;99.90;;;;;;4999897;28;20026;-76
2021/01/07 07:35:41;;;;;;;11.38;8.55;;;2.50;99.90;;;;;;4999759;28;20026;-76
2021/01/07 07:38:10;;;;;;;9.45;7.70;;;2.50;99.90;;;;;;5013680;28;20421;-76
2021/01/07 07:40:38;;;;;;;9.07;7.95;;;2.50;99.90;;;;;;5013226;28;20037;-77
2021/01/07 07:43:04;;;;;;;9.65;8.65;;;2.50;99.90;;;;;;5014002;28;20040;-77
2021/01/07 07:45:32;;;;;;;12.38;8.70;;;2.50;99.90;;;;;;5015112;28;20053;-76
2021/01/07 07:47:59;;;;;;;9.70;8.65;;;2.50;99.90;;;;;;5006661;28;20033;-76
2021/01/07 07:50:30;;;;;;;10.70;8.95;;;2.50;99.90;;;;;;5014292;28;20025;-76
2021/01/07 07:53:06;;;;;;;10.63;8.40;;;2.50;99.90;;;;;;5006771;28;20030;-76
2021/01/07 07:55:35;;;;;;;10.00;8.63;;;2.60;99.90;;;;;;4996518;28;20022;-76
2021/01/07 07:58:12;;;;;;;10.65;8.75;;;2.50;99.90;;;;;;4993487;28;20038;-77
2021/01/07 08:00:38;;;;;;;11.10;9.70;;;2.60;99.90;;;;;;5013877;28;20053;-77
2021/01/07 08:03:04;;;;;;;10.45;8.90;;;2.60;99.90;;;;;;5015043;28;20026;-77
2021/01/07 08:05:32;;;;;;;10.63;9.18;;;2.60;99.90;;;;;;5014500;28;20120;-76
2021/01/07 08:07:58;;;;;;;12.13;9.18;;;2.60;99.90;;;;;;4991276;28;20034;-76
2021/01/07 08:10:26;;;;;;;10.60;9.43;;;2.60;99.90;;;;;;5014902;28;20052;-76
2021/01/07 08:12:53;;;;;;;9.60;8.60;;;2.60;99.90;;;;;;5014336;28;20037;-77
2021/01/07 08:15:31;;;;;;;10.63;9.43;;;2.70;99.90;;;;;;4996445;28;20022;-76
2021/01/07 08:18:16;;;;;;;11.32;9.27;;;2.70;99.90;;;;;;4995787;28;20402;-77
2021/01/07 08:20:42;;;;;;;9.00;8.07;;;2.70;99.90;;;;;;5016387;28;20039;-77
2021/01/07 08:23:12;;;;;;;11.43;9.10;;;2.70;99.90;;;;;;5017907;28;20034;-76
2021/01/07 08:25:45;;;;;;;9.63;8.37;;;2.70;99.90;;;;;;5018121;28;20072;-77
2021/01/07 08:28:32;;;;;;;9.07;7.90;;;2.70;99.90;;;;;;5016767;28;20026;-77
2021/01/07 08:31:02;;;;;;;9.65;8.52;;;2.80;99.90;;;;;;5001495;28;20030;-76
2021/01/07 08:33:29;;;;;;;9.95;8.55;;;2.70;99.90;;;;;;4992005;28;20030;-77
2021/01/07 08:36:01;;;;;;;10.50;9.40;;;2.70;99.90;;;;;;5014131;28;20030;-77
2021/01/07 08:38:31;;;;;;;10.43;8.27;;;2.80;99.90;;;;;;5016948;28;20022;-76
2021/01/07 08:41:12;;;;;;;10.18;7.97;;;2.90;99.90;;;;;;5016119;28;20076;-76
2021/01/07 08:43:38;;;;;;;9.85;8.60;;;2.90;99.90;;;;;;4999865;28;20025;-78
2021/01/07 08:46:22;;;;;;;9.45;8.32;;;2.90;99.90;;;;;;5017979;28;20103;-77
2021/01/07 08:49:00;;;;;;;9.52;8.63;;;2.90;99.90;;;;;;4998858;28;20036;-76
2021/01/07 08:51:27;;;;;;;8.48;7.60;;;2.90;99.90;;;;;;5016834;28;20098;-79
2021/01/07 08:53:55;;;;;;;11.13;9.07;;;2.90;99.90;;;;;;4999059;28;20161;-76
2021/01/07 08:56:38;;;;;;;10.05;8.23;;;2.90;99.90;;;;;;5016916;28;20044;-77
2021/01/07 08:59:26;;;;;;;7.95;7.15;;;3.00;99.90;;;;;;5017115;28;20029;-75
2021/01/07 09:02:06;;;;;;;9.95;8.02;;;3.00;99.90;;;;;;5023326;28;20037;-76
2021/01/07 09:04:40;;;;;;;8.80;7.60;;;3.00;99.90;;;;;;5000321;28;20068;-75
2021/01/07 09:07:12;;;;;;;8.32;7.43;;;3.00;99.90;;;;;;5000110;28;20289;-76
2021/01/07 09:09:39;;;;;;;8.27;7.07;;;3.00;99.90;;;;;;5018614;28;20034;-76
2021/01/07 09:12:27;;;;;;;9.20;7.90;;;3.10;99.90;;;;;;5017603;28;20536;-76
2021/01/07 09:15:10;;;;;;;10.18;7.03;;;3.10;99.90;;;;;;5016458;28;20026;-76
2021/01/07 09:17:47;;;;;;;9.73;8.23;;;3.10;99.90;;;;;;5017448;28;20034;-77
2021/01/07 09:20:19;;;;;;;7.50;6.57;;;3.10;99.90;;;;;;5017726;28;20038;-76
2021/01/07 09:22:46;;;;;;;7.43;6.72;;;3.10;79.50;;;;;;5020945;28;20029;-75
2021/01/07 09:25:19;;;;;;;8.65;7.68;;;3.10;95.00;;;;;;5021345;28;20473;-75
2021/01/07 09:27:46;;;;;;;8.43;7.32;;;3.10;86.70;;;;;;5026880;28;20056;-75
2021/01/07 09:30:14;;;;;;;9.07;8.18;;;3.20;96.30;;;;;;5009709;28;20025;-76
2021/01/07 09:32:40;;;;;;;8.13;7.32;;;3.20;96.10;;;;;;5022094;28;20053;-77
2021/01/07 09:35:06;;;;;;;8.25;7.43;;;3.20;85.60;;;;;;5018693;28;20086;-76
2021/01/07 09:37:35;;;;;;;8.82;7.93;;;3.20;92.00;;;;;;5020742;28;20054;-77
2021/01/07 09:40:02;;;;;;;8.52;7.28;;;3.20;92.90;;;;;;4999873;28;20136;-77
2021/01/07 09:42:29;;;;;;;9.52;8.05;;;3.20;95.60;;;;;;5018224;28;20030;-76
2021/01/07 09:44:55;;;;;;;7.75;6.95;;;3.30;99.90;;;;;;5017700;28;20389;-78
2021/01/07 09:47:22;;;;;;;8.75;7.60;;;3.40;90.80;;;;;;5017866;28;20049;-77
2021/01/07 09:49:48;;;;;;;8.27;7.47;;;3.40;91.40;;;;;;5018544;28;20532;-76
2021/01/07 09:52:13;;;;;;;8.80;7.47;;;3.40;67.60;;;;;;4999367;28;20034;-78
2021/01/07 09:54:39;;;;;;;8.25;7.40;;;3.50;65.40;;;;;;5017880;28;20030;-77
2021/01/07 09:57:05;;;;;;;7.32;6.63;;;3.50;28.60;;;;;;5018109;28;20100;-78
2021/01/07 09:59:31;;;;;;;8.93;7.50;;;3.50;17.50;;;;;;5017432;28;20029;-78
2021/01/07 10:01:58;;;;;;;8.45;6.82;;;3.50;33.70;;;;;;5020759;28;20026;-77
2021/01/07 10:04:24;;;;;;;7.90;7.10;;;3.50;41.50;;;;;;5021959;28;20096;-76
2021/01/07 10:06:50;;;;;;;13.10;7.22;;;3.60;31.60;;;;;;5019288;28;20548;-77
2021/01/07 10:09:16;;;;;;;9.23;7.10;;;3.50;7.70;;;;;;5014965;28;20034;-76
2021/01/07 10:11:42;;;;;;;8.52;7.70;;;3.60;14.30;;;;;;5017230;28;20018;-77
2021/01/07 10:14:08;;;;;;;8.35;7.43;;;3.50;9.20;;;;;;5000430;28;20022;-75
2021/01/07 10:16:34;;;;;;;9.18;7.72;;;3.50;16.50;;;;;;5018117;28;20030;-77
2021/01/07 10:19:00;;;;;;;8.25;7.38;;;3.50;15.40;;;;;;4998764;28;20044;-77
2021/01/07 10:21:29;;;;;;;7.60;6.85;;;3.50;5.90;;;;;;5018398;28;20060;-76
2021/01/07 10:23:55;;;;;;;8.68;7.78;;;3.50;6.50;;;;;;4979312;28;20041;-77
2021/01/07 10:26:21;;;;;;;8.60;7.68;;;3.70;7.80;;;;;;5016773;28;20038;-77
2021/01/07 10:28:49;;;;;;;8.60;7.53;;;3.70;1.00;;;;;;5017105;28;20061;-77
2021/01/07 10:31:18;;;;;;;9.55;8.20;;;3.70;16.00;;;;;;5018889;28;20053;-75
2021/01/07 10:33:45;;;;;;;8.88;7.97;;;3.70;19.00;;;;;;5019580;28;20030;-76
2021/01/07 10:36:15;;;;;;;8.07;7.28;;;3.70;8.80;;;;;;5020233;28;20068;-75
2021/01/07 10:38:42;;;;;;;10.65;7.80;;;3.80;1.00;;;;;;5019364;28;20018;-77
2021/01/07 10:41:08;;;;;;;7.90;7.10;;;3.80;1.00;;;;;;5001679;28;20022;-76
2021/01/07 10:43:35;;;;;;;8.98;7.95;;;3.90;1.00;;;;;;5017754;28;20026;-76
2021/01/07 10:46:02;;;;;;;10.73;8.32;;;3.90;1.00;;;;;;5017372;28;20026;-76
2021/01/07 10:48:29;;;;;;;8.00;7.00;;;3.90;1.00;;;;;;5019900;28;20053;-77
2021/01/07 10:51:00;;;;;;;11.52;8.65;;;3.90;1.00;;;;;;5015597;28;20090;-77
2021/01/07 10:53:29;;;;;;;7.38;6.50;;;4.00;1.00;;;;;;5001925;28;20026;-77
2021/01/07 10:56:10;;;;;;;9.00;7.65;;;3.90;1.00;;;;;;5005519;28;20045;-79
2021/01/07 10:58:57;;;;;;;9.20;8.15;;;4.00;1.00;;;;;;5033021;28;20037;-77
2021/01/07 11:01:47;;;;;;;8.27;7.40;;;4.00;1.00;;;;;;5020443;28;20021;-76
2021/01/07 11:04:50;;;;;;;7.90;7.10;;;4.00;1.00;;;;;;5005855;28;20018;-76
2021/01/07 11:07:47;;;;;;;8.35;7.55;;;4.00;1.00;;;;;;5020509;28;20030;-78
2021/01/07 11:10:14;;;;;;;9.55;6.75;;;4.00;1.00;;;;;;4980030;28;20034;-77
2021/01/07 11:12:53;;;;;;;8.23;6.95;;;4.00;1.00;;;;;;4990904;28;20105;-77
2021/01/07 11:15:23;;;;;;;7.22;6.18;;;4.00;1.00;;;;;;5018998;28;20034;-77
2021/01/07 11:17:55;;;;;;;7.00;6.30;;;4.10;99.90;;;;;;5005465;28;20033;-77
2021/01/07 11:20:25;;;;;;;6.57;5.90;;;4.20;99.90;;;;;;5016430;28;20386;-76
2021/01/07 11:22:52;;;;;;;8.90;6.43;;;4.10;99.90;;;;;;5016776;28;20088;-77
2021/01/07 11:25:18;;;;;;;6.72;6.03;;;4.20;99.90;;;;;;5018007;28;20037;-77
2021/01/07 11:27:45;;;;;;;8.05;6.20;;;4.10;99.90;;;;;;5016645;28;20038;-76
2021/01/07 11:30:12;;;;;;;6.70;6.00;;;3.90;99.90;;;;;;5015061;28;20163;-72
2021/01/07 11:32:38;;;;;;;7.22;6.50;;;3.90;99.90;;;;;;5013178;28;20022;-73
2021/01/07 11:35:08;;;;;;;7.18;6.15;;;4.00;1.00;;;;;;5015683;28;20018;-72
2021/01/07 11:37:52;;;;;;;7.13;6.43;;;4.10;99.90;;;;;;5020046;28;20045;-74
2021/01/07 11:40:35;;;;;;;7.30;6.60;;;4.20;99.90;;;;;;4991610;28;20383;-73
2021/01/07 11:43:13;;;;;;;8.63;6.97;;;4.20;99.90;;;;;;4997418;28;20033;-73
2021/01/07 11:45:45;;;;;;;7.03;6.32;;;4.10;99.90;;;;;;5014683;28;20034;-71
2021/01/07 11:48:11;;;;;;;6.85;6.05;;;4.20;1.00;;;;;;5014149;28;20034;-72
2021/01/07 11:50:41;;;;;;;6.68;5.97;;;4.10;99.90;;;;;;5013320;28;20061;-72
2021/01/07 11:53:06;;;;;;;6.75;6.03;;;4.20;99.90;;;;;;5017215;28;20450;-72
2021/01/07 11:55:32;;;;;;;7.32;6.32;;;4.10;99.90;;;;;;5000071;28;20057;-74
2021/01/07 11:57:59;;;;;;;5.80;5.18;;;4.20;99.90;;;;;;5017172;28;20413;-72
2021/01/07 12:00:25;;;;;;;6.28;5.57;;;4.20;99.90;;;;;;5017983;28;20449;-72
2021/01/07 12:02:51;;;;;;;11.45;6.22;;;4.30;99.90;;;;;;5018665;28;20379;-72
2021/01/07 12:05:19;;;;;;;5.80;5.13;;;4.30;99.90;;;;;;5017891;28;20034;-73
2021/01/07 12:07:45;;;;;;;6.78;5.68;;;4.30;99.90;;;;;;5016335;28;20030;-73
2021/01/07 12:10:12;;;;;;;6.53;5.93;;;4.30;99.90;;;;;;5017657;28;20026;-75
2021/01/07 12:12:54;;;;;;;7.65;6.95;;;4.30;99.90;;;;;;5017834;28;20072;-73
2021/01/07 12:15:21;;;;;;;6.78;6.03;;;4.30;99.90;;;;;;5017144;28;20502;-72
2021/01/07 12:17:48;;;;;;;6.63;5.55;;;4.30;99.90;;;;;;5016542;28;20026;-72
2021/01/07 12:20:13;;;;;;;7.88;5.88;;;4.30;99.90;;;;;;5017332;28;20046;-72
2021/01/07 12:22:40;;;;;;;6.82;5.82;;;4.20;99.90;;;;;;4986812;28;20066;-72
2021/01/07 12:25:06;;;;;;;7.68;6.50;;;4.20;99.90;;;;;;5001892;28;20065;-73
2021/01/07 12:27:34;;;;;;;8.73;6.78;;;4.20;99.90;;;;;;5017028;28;20397;-73
2021/01/07 12:30:04;;;;;;;7.55;6.80;;;4.20;99.90;;;;;;5016279;28;20486;-72
2021/01/07 12:32:34;;;;;;;7.68;6.25;;;4.30;99.90;;;;;;4999263;28;20037;-72
2021/01/07 12:35:04;;;;;;;7.40;6.47;;;4.30;99.90;;;;;;4998991;28;20509;-73
2021/01/07 12:37:40;;;;;;;7.65;6.60;;;4.30;99.90;;;;;;4999079;28;20112;-73
2021/01/07 12:40:09;;;;;;;8.05;6.53;;;4.20;99.90;;;;;;5016545;28;20564;-73
2021/01/07 12:42:54;;;;;;;7.57;6.53;;;4.20;99.90;;;;;;5016336;28;20034;-72
2021/01/07 12:45:20;;;;;;;8.23;6.60;;;4.20;99.90;;;;;;5015846;28;20029;-73
2021/01/07 12:47:45;;;;;;;8.45;7.35;;;4.30;99.90;;;;;;4999122;28;20045;-72
2021/01/07 12:50:13;;;;;;;8.73;6.90;;;4.20;99.90;;;;;;5016610;28;20054;-73
2021/01/07 12:52:39;;;;;;;8.70;6.78;;;4.10;99.90;;;;;;5021744;28;20018;-72
2021/01/07 12:55:09;;;;;;;9.50;7.53;;;4.20;99.90;;;;;;5020363;28;20494;-72
2021/01/07 12:57:40;;;;;;;8.50;7.38;;;4.10;1.00;;;;;;5021343;28;20034;-74
2021/01/07 13:00:13;;;;;;;8.52;7.43;;;4.20;1.00;;;;;;5021801;28;20034;-74
2021/01/07 13:02:51;;;;;;;9.55;8.18;;;4.20;99.90;;;;;;5005059;28;20429;-73